Time;durP1;ratioP1;P1;durP2;ratioP2;P2;SDS_P1;SDS_P2;PMS_P1;PMS_P2;Temp;Humidity;BMP_temperature;BMP_pressure;BME280_temperature;BME280_humidity;BME280_pressure;Samples;Min_cycle;Max_cycle;Signal;HPM_P1;HPM_P2
2022/09/25 00:00:21;;;;;;;4.38;1.27;;;9.70;99.90;;;;;;5077971;28;20036;-36
2022/09/25 00:02:47;;;;;;;3.40;1.48;;;9.70;99.90;;;;;;5076693;28;20060;-37
2022/09/25 00:05:12;;;;;;;5.72;1.13;;;9.70;99.90;;;;;;5072086;28;20079;-37
2022/09/25 00:07:38;;;;;;;7.22;1.52;;;9.70;99.90;;;;;;5071244;28;20036;-38
2022/09/25 00:10:04;;;;;;;5.20;1.20;;;9.70;99.90;;;;;;5077771;28;20044;-38
2022/09/25 00:12:30;;;;;;;4.93;1.30;;;9.70;99.90;;;;;;5069317;28;20036;-38
2022/09/25 00:14:56;;;;;;;6.90;1.33;;;9.70;99.90;;;;;;5072729;28;20392;-38
2022/09/25 00:17:22;;;;;;;3.90;1.38;;;9.70;99.90;;;;;;5086913;28;20196;-37
2022/09/25 00:19:51;;;;;;;4.38;1.35;;;9.70;99.90;;;;;;5070545;28;20178;-37
2022/09/25 00:22:17;;;;;;;3.30;1.10;;;9.70;99.90;;;;;;5074173;28;20044;-37
2022/09/25 00:24:44;;;;;;;5.22;1.15;;;9.70;99.90;;;;;;5081270;28;20128;-36
2022/09/25 00:27:10;;;;;;;4.85;1.10;;;9.70;99.90;;;;;;5069653;28;20044;-36
2022/09/25 00:29:37;;;;;;;3.85;1.20;;;9.60;99.90;;;;;;5068989;28;20082;-36
2022/09/25 00:32:04;;;;;;;2.05;0.80;;;9.60;99.90;;;;;;5079012;28;20124;-37
2022/09/25 00:34:29;;;;;;;2.58;1.00;;;9.60;99.90;;;;;;5068919;28;20072;-37
2022/09/25 00:36:56;;;;;;;4.05;1.25;;;9.60;99.90;;;;;;5069926;28;20526;-37
2022/09/25 00:39:22;;;;;;;4.72;1.15;;;9.60;99.90;;;;;;5074626;28;20032;-37
2022/09/25 00:41:47;;;;;;;3.90;0.85;;;9.50;99.90;;;;;;5078883;28;20510;-38
2022/09/25 00:44:55;;;;;;;6.13;1.20;;;9.50;99.90;;;;;;5085521;28;20493;-37
2022/09/25 00:47:39;;;;;;;5.05;1.17;;;9.50;99.90;;;;;;5075286;28;20078;-37
2022/09/25 00:50:15;;;;;;;4.95;0.98;;;9.50;99.90;;;;;;5070475;28;20082;-36
2022/09/25 00:52:42;;;;;;;3.10;1.00;;;9.50;99.90;;;;;;5067362;28;20115;-37
2022/09/25 00:55:11;;;;;;;3.67;0.90;;;9.50;99.90;;;;;;5079470;28;20054;-37
2022/09/25 00:57:39;;;;;;;3.22;0.73;;;9.50;99.90;;;;;;5080165;28;20055;-36
2022/09/25 01:00:09;;;;;;;3.75;0.90;;;9.40;99.90;;;;;;5092012;28;20036;-37
2022/09/25 01:02:43;;;;;;;1.77;0.75;;;9.40;99.90;;;;;;5074914;28;20044;-38
2022/09/25 01:05:16;;;;;;;4.15;0.95;;;9.40;99.90;;;;;;5078718;28;20040;-37
2022/09/25 01:07:45;;;;;;;5.28;2.20;;;9.40;99.90;;;;;;5073518;28;20505;-37
2022/09/25 01:10:12;;;;;;;2.63;0.90;;;9.40;99.90;;;;;;5078157;28;20044;-38
2022/09/25 01:12:40;;;;;;;3.05;0.70;;;9.30;99.90;;;;;;5089771;28;20032;-38
2022/09/25 01:15:10;;;;;;;4.60;1.10;;;9.30;99.90;;;;;;5084718;28;20040;-38
2022/09/25 01:17:59;;;;;;;2.63;0.98;;;9.30;99.90;;;;;;5074902;28;20506;-38
2022/09/25 01:20:49;;;;;;;1.20;0.50;;;9.30;99.90;;;;;;5072356;28;20089;-38
2022/09/25 01:23:36;;;;;;;3.13;0.75;;;9.30;99.90;;;;;;5086720;28;20056;-38
2022/09/25 01:26:07;;;;;;;2.50;0.98;;;9.20;99.90;;;;;;5076146;28;20056;-37
2022/09/25 01:29:00;;;;;;;1.90;0.70;;;9.20;99.90;;;;;;5076762;28;20090;-37
2022/09/25 01:32:07;;;;;;;1.85;0.55;;;9.20;99.90;;;;;;5072648;28;20067;-39
2022/09/25 01:34:44;;;;;;;2.47;0.90;;;9.20;99.90;;;;;;5022198;28;20507;-37
2022/09/25 01:37:40;;;;;;;1.63;0.70;;;9.20;99.90;;;;;;5071552;28;20052;-37
2022/09/25 01:40:08;;;;;;;2.60;0.70;;;9.20;99.90;;;;;;5085941;28;20032;-36
2022/09/25 01:42:43;;;;;;;1.98;0.65;;;9.20;99.90;;;;;;5084378;28;20044;-38
2022/09/25 01:45:17;;;;;;;3.63;0.60;;;9.20;99.90;;;;;;5073234;28;20049;-36
2022/09/25 01:47:47;;;;;;;1.58;0.70;;;9.20;99.90;;;;;;5075092;28;20096;-37
2022/09/25 01:50:26;;;;;;;2.60;0.65;;;9.10;99.90;;;;;;5072819;28;20037;-38
2022/09/25 01:52:56;;;;;;;3.08;0.68;;;9.10;99.90;;;;;;5083445;28;20095;-42
2022/09/25 01:55:37;;;;;;;1.52;0.50;;;9.10;99.90;;;;;;5080399;28;20090;-38
2022/09/25 01:58:35;;;;;;;2.88;0.55;;;9.10;99.90;;;;;;5083196;28;20047;-38
2022/09/25 02:01:09;;;;;;;3.38;0.57;;;9.10;99.90;;;;;;5039828;28;20048;-38
2022/09/25 02:03:54;;;;;;;1.25;0.50;;;9.00;99.90;;;;;;5076901;28;20043;-37
2022/09/25 02:06:21;;;;;;;1.30;0.40;;;9.00;99.90;;;;;;5077970;28;20072;-38
2022/09/25 02:09:13;;;;;;;2.78;0.70;;;8.90;99.90;;;;;;5063901;28;20515;-36
2022/09/25 02:11:43;;;;;;;1.50;0.57;;;9.00;99.90;;;;;;5077838;28;20056;-38
2022/09/25 02:14:19;;;;;;;2.33;0.57;;;8.90;99.90;;;;;;5079145;28;20040;-38
2022/09/25 02:16:49;;;;;;;3.15;0.80;;;8.90;99.90;;;;;;5075847;28;20044;-37
2022/09/25 02:22:05;;;;;;;1.80;0.60;;;8.90;99.90;;;;;;5085273;28;20071;-37
2022/09/25 02:24:55;;;;;;;3.75;0.60;;;8.90;99.90;;;;;;5078359;28;20493;-37
2022/09/25 02:27:23;;;;;;;1.45;0.45;;;8.90;99.90;;;;;;5076465;28;20048;-38
2022/09/25 02:29:50;;;;;;;2.15;0.43;;;8.90;99.90;;;;;;5087150;28;20055;-37
2022/09/25 02:32:20;;;;;;;1.10;0.50;;;8.90;99.90;;;;;;5080775;28;20097;-37
2022/09/25 02:34:46;;;;;;;0.98;0.40;;;8.90;99.90;;;;;;5074952;28;20033;-37
2022/09/25 02:37:16;;;;;;;2.42;0.40;;;8.90;99.90;;;;;;5076402;28;20068;-37
2022/09/25 02:39:48;;;;;;;3.20;0.80;;;8.90;99.90;;;;;;5079104;28;20646;-37
2022/09/25 02:42:33;;;;;;;0.85;0.40;;;8.90;99.90;;;;;;5083483;28;20401;-37
2022/09/25 02:45:13;;;;;;;2.65;0.50;;;8.90;99.90;;;;;;5081860;28;20135;-37
2022/09/25 02:48:00;;;;;;;1.30;0.40;;;8.80;99.90;;;;;;5083805;28;20097;-37
2022/09/25 02:50:34;;;;;;;3.13;0.60;;;8.80;99.90;;;;;;5077586;28;20048;-37
2022/09/25 02:53:05;;;;;;;1.88;0.40;;;8.80;99.90;;;;;;5073937;28;20032;-38
2022/09/25 02:55:53;;;;;;;1.80;0.60;;;8.80;99.90;;;;;;5077818;28;20383;-38
2022/09/25 02:58:34;;;;;;;2.03;0.70;;;8.80;99.90;;;;;;5062879;28;20048;-37
2022/09/25 03:01:04;;;;;;;2.05;0.63;;;8.80;99.90;;;;;;5073817;28;20028;-37
2022/09/25 03:03:32;;;;;;;2.13;0.40;;;8.80;99.90;;;;;;5078433;28;20031;-37
2022/09/25 03:06:00;;;;;;;2.15;0.60;;;8.80;99.90;;;;;;5074842;28;20497;-36
2022/09/25 03:08:36;;;;;;;3.40;0.80;;;8.80;99.90;;;;;;5077726;28;20036;-38
2022/09/25 03:11:06;;;;;;;1.30;0.40;;;8.80;99.90;;;;;;5072834;28;20046;-38
2022/09/25 03:13:32;;;;;;;1.77;0.50;;;8.80;99.90;;;;;;5070750;28;20044;-39
2022/09/25 03:16:11;;;;;;;2.28;0.68;;;8.80;99.90;;;;;;5077444;28;20044;-38
2022/09/25 03:18:36;;;;;;;1.58;0.60;;;8.80;99.90;;;;;;5081537;28;20111;-38
2022/09/25 03:21:03;;;;;;;2.80;1.45;;;8.80;99.90;;;;;;5073763;28;20128;-38
2022/09/25 03:23:30;;;;;;;2.05;0.70;;;8.80;99.90;;;;;;5082371;28;20091;-38
2022/09/25 03:25:55;;;;;;;5.22;0.80;;;8.80;99.90;;;;;;5069046;28;20485;-37
2022/09/25 03:28:22;;;;;;;4.25;0.82;;;8.80;99.90;;;;;;5070444;28;20063;-37
2022/09/25 03:31:02;;;;;;;1.75;0.60;;;8.90;99.90;;;;;;5071149;28;20476;-38
2022/09/25 03:33:33;;;;;;;2.88;0.73;;;9.00;99.90;;;;;;5078566;28;20584;-38
2022/09/25 03:36:20;;;;;;;3.60;0.50;;;9.00;99.90;;;;;;5081601;28;20028;-38
2022/09/25 03:38:49;;;;;;;1.33;0.43;;;9.10;99.90;;;;;;5069530;28;20048;-37
2022/09/25 03:41:18;;;;;;;2.95;0.50;;;9.10;99.90;;;;;;5072477;28;20502;-37
2022/09/25 03:43:46;;;;;;;1.20;0.50;;;9.20;99.90;;;;;;5078406;28;20401;-38
2022/09/25 03:46:13;;;;;;;1.27;0.68;;;9.20;99.90;;;;;;5072284;28;20135;-37
2022/09/25 03:48:40;;;;;;;3.05;0.63;;;9.30;99.90;;;;;;5071499;28;20474;-37
2022/09/25 03:51:06;;;;;;;1.88;0.50;;;9.20;99.90;;;;;;5073832;28;20066;-37
2022/09/25 03:53:32;;;;;;;1.60;0.50;;;9.20;99.90;;;;;;5065335;28;20051;-38
2022/09/25 03:56:07;;;;;;;1.23;0.50;;;9.20;99.90;;;;;;5074775;28;20155;-37
2022/09/25 03:58:33;;;;;;;1.27;0.60;;;9.10;99.90;;;;;;5080303;28;20051;-38
2022/09/25 04:01:00;;;;;;;2.50;0.60;;;9.10;99.90;;;;;;5083030;28;20037;-38
2022/09/25 04:03:28;;;;;;;5.88;1.38;;;9.00;99.90;;;;;;5071199;28;20055;-37
2022/09/25 04:05:58;;;;;;;1.20;0.55;;;9.00;99.90;;;;;;5079216;28;20044;-35
2022/09/25 04:08:25;;;;;;;0.82;0.50;;;8.90;99.90;;;;;;5073375;28;20032;-38
2022/09/25 04:10:58;;;;;;;5.72;0.70;;;8.90;99.90;;;;;;5068609;28;20107;-39
2022/09/25 04:13:25;;;;;;;3.13;0.65;;;8.90;99.90;;;;;;5073128;28;20049;-37
2022/09/25 04:15:51;;;;;;;2.65;0.77;;;8.90;99.90;;;;;;5076415;28;20047;-38
2022/09/25 04:18:17;;;;;;;1.65;0.40;;;8.90;99.90;;;;;;5074361;28;20071;-37
2022/09/25 04:20:43;;;;;;;3.22;0.65;;;8.80;99.90;;;;;;5073652;28;20044;-38
2022/09/25 04:23:10;;;;;;;3.38;0.80;;;8.80;99.90;;;;;;5069443;28;20048;-38
2022/09/25 04:25:36;;;;;;;3.22;1.00;;;8.90;99.90;;;;;;5070927;28;20087;-40
2022/09/25 04:28:01;;;;;;;2.42;0.80;;;8.80;99.90;;;;;;5070404;28;20072;-38
2022/09/25 04:30:28;;;;;;;2.92;0.77;;;8.80;99.90;;;;;;5080279;28;20690;-39
2022/09/25 04:35:40;;;;;;;2.42;0.65;;;8.80;99.90;;;;;;5072541;28;20032;-37
2022/09/25 04:38:06;;;;;;;3.60;1.10;;;8.80;99.90;;;;;;5075085;28;20107;-40
2022/09/25 04:40:32;;;;;;;5.68;0.85;;;8.90;99.90;;;;;;5074661;28;20566;-39
2022/09/25 04:42:59;;;;;;;4.95;0.85;;;8.90;99.90;;;;;;5082300;28;20522;-37
2022/09/25 04:45:25;;;;;;;2.15;0.70;;;9.00;99.90;;;;;;5080322;28;20033;-38
2022/09/25 04:47:55;;;;;;;2.85;0.80;;;9.00;99.90;;;;;;5072669;28;20090;-41
2022/09/25 04:50:21;;;;;;;3.30;0.75;;;9.10;99.90;;;;;;5075497;28;20040;-37
2022/09/25 04:52:50;;;;;;;5.00;0.63;;;9.10;99.90;;;;;;5071963;28;20125;-37
2022/09/25 04:55:17;;;;;;;3.85;1.33;;;9.10;99.90;;;;;;5076223;28;20041;-39
2022/09/25 04:57:42;;;;;;;1.92;0.63;;;9.20;99.90;;;;;;5077378;28;20079;-38
2022/09/25 05:00:09;;;;;;;4.65;0.95;;;9.20;99.90;;;;;;5084286;28;20063;-40
2022/09/25 05:02:35;;;;;;;2.30;0.60;;;9.30;99.90;;;;;;5077962;28;20036;-39
2022/09/25 05:05:01;;;;;;;3.75;0.90;;;9.30;99.90;;;;;;5078783;28;20079;-38
2022/09/25 05:07:27;;;;;;;3.53;0.90;;;9.40;99.90;;;;;;5072622;28;20064;-38
2022/09/25 05:09:53;;;;;;;7.13;0.70;;;9.40;99.90;;;;;;5056762;28;20047;-38
2022/09/25 05:12:19;;;;;;;1.70;0.60;;;9.50;99.90;;;;;;5075459;28;20071;-38
2022/09/25 05:14:45;;;;;;;4.05;0.70;;;9.50;99.90;;;;;;5085900;28;20558;-38
2022/09/25 05:17:11;;;;;;;6.43;0.90;;;9.50;99.90;;;;;;5090472;28;20489;-39
2022/09/25 05:19:38;;;;;;;3.63;0.98;;;9.50;99.90;;;;;;5075942;28;20029;-38
2022/09/25 05:22:04;;;;;;;8.27;1.08;;;9.50;99.90;;;;;;5082196;28;20039;-39
2022/09/25 05:24:33;;;;;;;5.28;0.77;;;9.50;99.90;;;;;;5078974;28;20079;-40
2022/09/25 05:26:59;;;;;;;3.17;0.50;;;9.60;99.90;;;;;;5085699;28;20101;-39
2022/09/25 05:29:25;;;;;;;4.72;0.70;;;9.60;99.90;;;;;;5077264;28;20048;-37
2022/09/25 05:31:50;;;;;;;2.05;0.50;;;9.60;99.90;;;;;;5075198;28;20043;-37
2022/09/25 05:34:16;;;;;;;3.40;0.68;;;9.60;99.90;;;;;;5072637;28;20104;-39
2022/09/25 05:36:42;;;;;;;3.05;0.60;;;9.60;99.90;;;;;;5079181;28;20028;-39
2022/09/25 05:39:10;;;;;;;1.50;0.50;;;9.60;99.90;;;;;;5087413;28;20115;-39
2022/09/25 05:41:36;;;;;;;3.58;0.75;;;9.60;99.90;;;;;;5074652;28;20032;-38
2022/09/25 05:44:05;;;;;;;5.32;1.02;;;9.60;99.90;;;;;;5070501;28;20044;-39
2022/09/25 05:46:35;;;;;;;5.50;0.45;;;9.60;99.90;;;;;;5070989;28;20486;-38
2022/09/25 05:49:01;;;;;;;6.35;0.90;;;9.70;99.90;;;;;;5072121;28;20481;-38
2022/09/25 05:51:27;;;;;;;4.80;1.23;;;9.70;99.90;;;;;;5073485;28;20075;-39
2022/09/25 05:53:53;;;;;;;2.35;1.00;;;9.70;99.90;;;;;;5073085;28;20093;-38
2022/09/25 05:56:19;;;;;;;2.75;0.68;;;9.60;99.90;;;;;;5072469;28;20048;-38
2022/09/25 05:58:47;;;;;;;3.67;1.10;;;9.60;99.90;;;;;;5075660;28;20040;-39
2022/09/25 06:01:13;;;;;;;4.82;0.73;;;9.60;99.90;;;;;;5081823;28;20489;-38
2022/09/25 06:03:38;;;;;;;4.75;0.90;;;9.60;99.90;;;;;;5081766;28;20044;-36
2022/09/25 06:06:05;;;;;;;3.15;0.90;;;9.60;99.90;;;;;;5070785;28;20537;-37
2022/09/25 06:08:30;;;;;;;2.05;0.80;;;9.60;99.90;;;;;;5070297;28;20117;-38
2022/09/25 06:10:57;;;;;;;4.50;1.40;;;9.60;99.90;;;;;;5086076;28;20072;-39
2022/09/25 06:13:26;;;;;;;2.95;1.02;;;9.70;99.90;;;;;;5073005;28;20040;-38
2022/09/25 06:15:52;;;;;;;3.10;0.90;;;9.70;99.90;;;;;;5075237;28;20033;-38
2022/09/25 06:18:20;;;;;;;5.45;0.70;;;9.80;99.90;;;;;;5074174;28;20035;-40
2022/09/25 06:20:46;;;;;;;7.05;0.80;;;9.80;99.90;;;;;;5070233;28;20041;-39
2022/09/25 06:23:12;;;;;;;2.45;0.60;;;9.90;99.90;;;;;;5038367;28;1103249;-38
2022/09/25 06:25:38;;;;;;;1.92;0.70;;;10.00;99.90;;;;;;5076544;28;20048;-38
2022/09/25 06:28:05;;;;;;;4.20;0.60;;;10.20;99.90;;;;;;5069660;28;20044;-37
2022/09/25 06:30:34;;;;;;;4.78;0.95;;;10.30;99.90;;;;;;5069740;28;20056;-38
2022/09/25 06:33:00;;;;;;;5.47;0.80;;;10.40;99.90;;;;;;5071202;28;20390;-38
2022/09/25 06:35:30;;;;;;;1.65;0.50;;;10.60;99.90;;;;;;5074683;28;20036;-39
2022/09/25 06:37:57;;;;;;;4.18;0.80;;;10.70;99.90;;;;;;5072265;28;20195;-55
2022/09/25 06:40:26;;;;;;;4.82;0.73;;;10.80;99.90;;;;;;5084968;28;20089;-39
2022/09/25 06:43:00;;;;;;;3.80;0.65;;;11.00;99.90;;;;;;5079092;28;20082;-38
2022/09/25 06:45:28;;;;;;;1.73;0.50;;;11.10;99.90;;;;;;5070184;28;20048;-38
2022/09/25 06:48:07;;;;;;;2.47;0.50;;;11.20;99.90;;;;;;5076700;28;20048;-37
2022/09/25 06:50:45;;;;;;;2.03;0.50;;;11.30;99.90;;;;;;5088285;28;20630;-37
2022/09/25 06:53:12;;;;;;;6.45;0.70;;;11.40;99.90;;;;;;5071417;28;20511;-38
2022/09/25 06:55:38;;;;;;;5.82;0.63;;;11.50;99.90;;;;;;5077256;28;20085;-37
2022/09/25 06:58:05;;;;;;;1.63;0.40;;;11.60;99.90;;;;;;5076166;28;20123;-38
2022/09/25 07:00:32;;;;;;;2.97;0.50;;;11.70;99.90;;;;;;5062117;28;20040;-38
2022/09/25 07:05:50;;;;;;;2.47;0.52;;;11.90;99.90;;;;;;5054343;28;20106;-38
2022/09/25 07:08:19;;;;;;;2.75;1.05;;;12.10;99.90;;;;;;5075663;28;20048;-38
2022/09/25 07:10:50;;;;;;;1.73;0.38;;;12.20;99.90;;;;;;5074789;28;20048;-38
2022/09/25 07:13:17;;;;;;;1.15;0.40;;;12.30;99.90;;;;;;5072099;28;20131;-39
2022/09/25 07:15:53;;;;;;;2.15;0.55;;;12.40;99.90;;;;;;5082531;28;20039;-39
2022/09/25 07:18:20;;;;;;;2.60;0.60;;;12.40;99.90;;;;;;5080014;28;20401;-39
2022/09/25 07:20:46;;;;;;;3.95;0.47;;;12.50;99.90;;;;;;5081174;28;20064;-39
2022/09/25 07:23:16;;;;;;;1.42;0.28;;;12.60;99.90;;;;;;5079801;28;20314;-39
2022/09/25 07:25:44;;;;;;;1.30;0.35;;;12.70;99.90;;;;;;5070942;28;20048;-39
2022/09/25 07:28:12;;;;;;;5.00;0.50;;;12.70;99.90;;;;;;5072619;28;20495;-37
2022/09/25 07:30:39;;;;;;;3.30;0.47;;;12.70;99.90;;;;;;5074604;28;20590;-36
2022/09/25 07:33:05;;;;;;;1.55;0.30;;;12.70;99.90;;;;;;5058139;28;20416;-38
2022/09/25 07:35:33;;;;;;;2.50;0.20;;;12.80;99.90;;;;;;5071736;28;20066;-39
2022/09/25 07:37:59;;;;;;;2.72;0.50;;;12.80;99.90;;;;;;5077796;28;20841;-39
2022/09/25 07:40:27;;;;;;;1.70;0.40;;;12.70;99.90;;;;;;5069125;28;20036;-38
2022/09/25 07:43:05;;;;;;;2.72;0.30;;;12.70;99.90;;;;;;5079156;28;20516;-39
2022/09/25 07:45:31;;;;;;;1.10;0.35;;;12.70;99.90;;;;;;5075446;28;20062;-38
2022/09/25 07:48:01;;;;;;;2.22;0.30;;;12.60;99.90;;;;;;5073323;28;20529;-37
2022/09/25 07:50:29;;;;;;;4.32;0.60;;;12.60;99.90;;;;;;5080489;28;20488;-37
2022/09/25 07:52:55;;;;;;;1.98;0.30;;;12.60;99.90;;;;;;5072815;28;20044;-37
2022/09/25 07:55:21;;;;;;;2.08;0.40;;;12.60;99.90;;;;;;5072666;28;20035;-36
2022/09/25 07:57:48;;;;;;;1.23;0.40;;;12.70;99.90;;;;;;5055764;28;20195;-38
2022/09/25 08:00:14;;;;;;;2.67;0.90;;;12.70;99.90;;;;;;5068581;28;20064;-38
2022/09/25 08:02:40;;;;;;;3.53;0.40;;;12.70;99.90;;;;;;5071946;28;20607;-38
2022/09/25 08:05:06;;;;;;;2.42;0.35;;;12.80;99.90;;;;;;5074504;28;20124;-38
2022/09/25 08:07:32;;;;;;;2.90;0.28;;;12.80;99.90;;;;;;5055881;28;20063;-38
2022/09/25 08:09:57;;;;;;;0.85;0.17;;;12.80;99.90;;;;;;5079736;28;20074;-38
2022/09/25 08:12:24;;;;;;;2.53;0.30;;;12.90;99.90;;;;;;5073451;28;20541;-38
2022/09/25 08:14:53;;;;;;;1.85;0.30;;;13.00;99.90;;;;;;5073266;28;20117;-35
2022/09/25 08:17:21;;;;;;;2.13;0.30;;;13.00;99.90;;;;;;5070242;28;20098;-36
2022/09/25 08:19:46;;;;;;;1.83;0.30;;;13.10;99.90;;;;;;5078311;28;20052;-35
2022/09/25 08:22:12;;;;;;;1.55;0.20;;;13.20;99.90;;;;;;5070688;28;20054;-35
2022/09/25 08:24:38;;;;;;;1.58;0.30;;;13.20;99.90;;;;;;5073086;28;20131;-38
2022/09/25 08:27:04;;;;;;;1.95;0.30;;;13.30;99.90;;;;;;5073178;28;20040;-36
2022/09/25 08:29:30;;;;;;;1.75;0.20;;;13.40;99.90;;;;;;5059965;28;20032;-35
2022/09/25 08:31:57;;;;;;;1.42;0.50;;;13.40;99.90;;;;;;5064901;28;20512;-37
2022/09/25 08:34:23;;;;;;;2.67;0.40;;;13.50;99.90;;;;;;5071757;28;20036;-37
2022/09/25 08:36:49;;;;;;;2.58;0.30;;;13.60;99.90;;;;;;5071363;28;20041;-36
2022/09/25 08:39:15;;;;;;;2.17;0.40;;;13.60;99.90;;;;;;5077423;28;20405;-37
2022/09/25 08:41:49;;;;;;;3.63;0.30;;;13.70;99.90;;;;;;5065235;28;20406;-36
2022/09/25 08:44:26;;;;;;;1.70;0.30;;;13.80;99.90;;;;;;5073708;28;20064;-37
2022/09/25 08:50:04;;;;;;;3.97;1.20;;;13.90;99.90;;;;;;5072513;28;20051;-37
2022/09/25 08:52:31;;;;;;;1.92;0.30;;;14.00;99.90;;;;;;5067020;28;20044;-37
2022/09/25 08:54:57;;;;;;;2.97;0.47;;;14.10;99.90;;;;;;5060604;28;20509;-37
2022/09/25 08:57:44;;;;;;;0.68;0.30;;;14.20;99.90;;;;;;5070384;28;20036;-36
2022/09/25 09:00:22;;;;;;;0.75;0.20;;;14.20;99.90;;;;;;5068376;28;20032;-38
2022/09/25 09:02:58;;;;;;;2.72;0.30;;;14.30;99.90;;;;;;5068646;28;20531;-37
2022/09/25 09:05:30;;;;;;;1.45;0.40;;;14.40;99.90;;;;;;5075423;28;20040;-38
2022/09/25 09:08:02;;;;;;;2.33;0.30;;;14.50;99.90;;;;;;5071422;28;20159;-37
2022/09/25 09:10:47;;;;;;;2.08;0.20;;;14.50;99.90;;;;;;5073577;28;20040;-38
2022/09/25 09:13:12;;;;;;;1.80;0.20;;;14.60;99.90;;;;;;5078391;28;20427;-38
2022/09/25 09:16:00;;;;;;;4.18;0.30;;;14.60;99.90;;;;;;5077731;28;20043;-38
2022/09/25 09:18:28;;;;;;;2.38;0.20;;;14.70;99.90;;;;;;5080968;28;20048;-38
2022/09/25 09:21:15;;;;;;;2.13;0.70;;;14.80;99.90;;;;;;5073730;28;20044;-37
2022/09/25 09:24:00;;;;;;;6.30;0.30;;;14.90;99.90;;;;;;5073065;28;20063;-38
2022/09/25 09:26:42;;;;;;;5.93;0.40;;;14.90;99.90;;;;;;5076222;28;20123;-37
2022/09/25 09:29:57;;;;;;;2.20;0.30;;;15.00;99.90;;;;;;5077651;28;20152;-37
2022/09/25 09:32:42;;;;;;;1.73;0.30;;;15.10;99.10;;;;;;5026581;28;20045;-38
2022/09/25 09:35:31;;;;;;;2.58;0.30;;;15.20;99.90;;;;;;5073822;28;20076;-36
2022/09/25 09:38:04;;;;;;;1.70;0.22;;;15.30;99.10;;;;;;5078670;28;20040;-39
2022/09/25 09:40:51;;;;;;;4.13;0.30;;;15.30;98.70;;;;;;5076667;28;20044;-45
2022/09/25 09:43:45;;;;;;;4.43;0.35;;;15.30;98.10;;;;;;5076012;28;20178;-39
2022/09/25 09:46:25;;;;;;;1.45;0.20;;;15.30;98.40;;;;;;5065609;28;20513;-36
2022/09/25 09:49:04;;;;;;;1.75;0.20;;;15.30;97.80;;;;;;5074091;28;20048;-37
2022/09/25 09:51:56;;;;;;;2.65;0.30;;;15.40;97.00;;;;;;5062314;28;20124;-39
2022/09/25 09:54:49;;;;;;;4.53;0.28;;;15.40;96.70;;;;;;5079312;28;20504;-38
2022/09/25 09:57:46;;;;;;;1.23;0.10;;;15.50;97.00;;;;;;5075698;28;20090;-38
2022/09/25 10:00:17;;;;;;;2.17;0.20;;;15.50;97.00;;;;;;5074281;28;20060;-39
2022/09/25 10:02:51;;;;;;;3.22;0.20;;;15.40;97.30;;;;;;5079451;28;20497;-40
2022/09/25 10:05:55;;;;;;;2.75;0.25;;;15.50;97.20;;;;;;5063415;28;20493;-38
2022/09/25 10:08:21;;;;;;;3.28;0.50;;;15.70;94.10;;;;;;5042082;28;20075;-38
2022/09/25 10:10:52;;;;;;;0.80;0.30;;;15.90;94.80;;;;;;5077158;28;20040;-38
2022/09/25 10:13:25;;;;;;;1.80;0.20;;;16.10;93.40;;;;;;5078242;28;20083;-37
2022/09/25 10:15:53;;;;;;;2.38;0.25;;;16.30;91.90;;;;;;5077196;28;20040;-37
2022/09/25 10:18:23;;;;;;;1.60;0.32;;;16.50;91.40;;;;;;5077258;28;20047;-38
2022/09/25 10:21:08;;;;;;;0.40;0.17;;;16.60;90.50;;;;;;5078229;28;20516;-36
2022/09/25 10:23:51;;;;;;;2.30;0.50;;;16.70;88.00;;;;;;5055424;28;20425;-36
2022/09/25 10:26:32;;;;;;;2.30;0.40;;;16.70;87.30;;;;;;5073716;28;20071;-36
2022/09/25 10:29:00;;;;;;;2.97;0.30;;;16.70;88.60;;;;;;5085676;28;20045;-34
2022/09/25 10:31:30;;;;;;;2.40;0.40;;;16.70;88.00;;;;;;5071522;28;20494;-36
2022/09/25 10:34:05;;;;;;;6.43;0.30;;;16.80;87.60;;;;;;5077076;28;20498;-36
2022/09/25 10:36:39;;;;;;;0.28;0.13;;;16.90;87.90;;;;;;5049099;28;20126;-36
2022/09/25 10:39:27;;;;;;;0.57;0.10;;;16.80;85.80;;;;;;5077254;28;20052;-35
2022/09/25 10:41:53;;;;;;;1.85;0.15;;;16.50;85.50;;;;;;5073862;28;20090;-36
2022/09/25 10:44:32;;;;;;;0.95;0.20;;;16.00;88.40;;;;;;5078382;28;20044;-35
2022/09/25 10:50:19;;;;;;;1.15;0.20;;;15.20;92.40;;;;;;5071097;28;20103;-36
2022/09/25 10:52:58;;;;;;;2.47;0.25;;;14.90;94.00;;;;;;5081893;28;20040;-36
2022/09/25 10:55:42;;;;;;;0.40;0.10;;;14.70;95.20;;;;;;5071906;28;20103;-36
2022/09/25 10:58:29;;;;;;;1.60;0.20;;;14.60;96.20;;;;;;5078847;28;20036;-37
2022/09/25 11:00:57;;;;;;;0.63;0.40;;;14.60;97.20;;;;;;5052889;28;20044;-34
2022/09/25 11:03:38;;;;;;;0.38;0.10;;;14.70;97.10;;;;;;5070294;28;20485;-36
2022/09/25 11:06:08;;;;;;;0.65;0.20;;;14.70;97.20;;;;;;5076204;28;20047;-39
2022/09/25 11:08:40;;;;;;;0.93;0.10;;;14.80;97.60;;;;;;5069959;28;20109;-37
2022/09/25 11:11:08;;;;;;;0.50;0.13;;;15.00;98.10;;;;;;5078738;28;20040;-38
2022/09/25 11:13:48;;;;;;;0.73;0.10;;;15.20;98.10;;;;;;5084125;28;20044;-37
2022/09/25 11:16:14;;;;;;;1.13;0.25;;;15.40;97.80;;;;;;5077081;28;20102;-37
2022/09/25 11:18:44;;;;;;;0.22;0.03;;;15.60;97.70;;;;;;5079076;28;20039;-38
2022/09/25 11:21:28;;;;;;;1.08;0.20;;;15.80;97.00;;;;;;5072783;28;20135;-39
2022/09/25 11:24:03;;;;;;;1.42;0.10;;;16.00;95.90;;;;;;5073489;28;20083;-38
2022/09/25 11:27:08;;;;;;;1.65;0.13;;;16.10;95.70;;;;;;5074791;28;20519;-39
2022/09/25 11:29:58;;;;;;;1.85;0.30;;;16.20;96.00;;;;;;5068959;28;20048;-48
2022/09/25 11:32:53;;;;;;;1.58;0.20;;;16.30;96.20;;;;;;5074571;28;20041;-40
2022/09/25 11:35:44;;;;;;;0.40;0.10;;;16.50;95.90;;;;;;5077841;28;20106;-38
2022/09/25 11:41:11;;;;;;;1.92;0.20;;;16.50;94.80;;;;;;5071556;28;20036;-39
2022/09/25 11:41:40;;;;;;;1.77;0.20;;;16.60;94.30;;;;;;5073687;28;20512;-39
2022/09/25 11:44:35;;;;;;;1.52;0.20;;;16.70;94.40;;;;;;5072930;28;20512;-39
2022/09/25 11:47:35;;;;;;;1.08;0.10;;;16.60;93.90;;;;;;5078058;28;20036;-39
2022/09/25 11:50:01;;;;;;;2.75;0.20;;;16.50;92.20;;;;;;5072772;28;20036;-38
2022/09/25 11:52:36;;;;;;;0.73;0.10;;;16.20;93.30;;;;;;5070209;28;20110;-39
2022/09/25 11:55:19;;;;;;;1.65;0.20;;;16.10;93.30;;;;;;5073177;28;20171;-40
2022/09/25 11:58:15;;;;;;;0.77;0.20;;;15.90;92.60;;;;;;5078699;28;20469;-39
2022/09/25 12:01:20;;;;;;;1.05;0.10;;;15.70;92.50;;;;;;5071501;28;20119;-40
2022/09/25 12:04:04;;;;;;;0.50;0.10;;;15.60;92.40;;;;;;5056345;28;20048;-41
2022/09/25 12:06:54;;;;;;;0.57;0.10;;;15.50;92.90;;;;;;5066078;28;20488;-40
2022/09/25 12:09:39;;;;;;;2.15;0.52;;;15.50;93.10;;;;;;5076184;28;20036;-39
2022/09/25 12:12:21;;;;;;;1.15;0.20;;;15.60;94.40;;;;;;5071017;28;20233;-45
2022/09/25 12:15:11;;;;;;;1.42;0.10;;;15.70;94.80;;;;;;5073861;28;20174;-39
2022/09/25 12:18:02;;;;;;;2.10;0.20;;;15.70;93.30;;;;;;5071955;28;20040;-38
2022/09/25 12:20:36;;;;;;;1.15;0.20;;;15.70;93.90;;;;;;5072697;28;20051;-38
2022/09/25 12:23:21;;;;;;;2.53;0.38;;;15.70;93.80;;;;;;5072610;28;20128;-39
2022/09/25 12:25:50;;;;;;;1.80;0.30;;;15.70;93.60;;;;;;5070741;28;20048;-39
2022/09/25 12:28:19;;;;;;;0.60;0.20;;;15.90;93.10;;;;;;5056880;28;20040;-38
2022/09/25 12:31:09;;;;;;;2.22;0.20;;;16.10;92.80;;;;;;5079519;28;20098;-39
2022/09/25 12:33:56;;;;;;;1.33;0.30;;;16.20;89.00;;;;;;5074865;28;20032;-38
2022/09/25 12:36:35;;;;;;;0.45;0.10;;;16.40;91.10;;;;;;5077894;28;20502;-39
2022/09/25 12:39:32;;;;;;;0.50;0.10;;;16.70;91.20;;;;;;5073163;28;20482;-39
2022/09/25 12:42:23;;;;;;;0.22;0.20;;;17.00;83.00;;;;;;5071127;28;20041;-38
2022/09/25 12:44:57;;;;;;;2.72;0.20;;;17.60;82.90;;;;;;5072893;28;20490;-36
2022/09/25 12:47:34;;;;;;;6.13;0.20;;;18.10;80.00;;;;;;5076467;28;20104;-38
2022/09/25 12:50:12;;;;;;;2.85;0.20;;;18.50;74.50;;;;;;5079510;28;20115;-39
2022/09/25 12:52:50;;;;;;;2.10;0.20;;;18.60;74.00;;;;;;5073467;28;20544;-37
2022/09/25 12:55:32;;;;;;;2.33;0.30;;;18.50;76.30;;;;;;5078532;28;20043;-39
2022/09/25 12:58:17;;;;;;;1.87;0.20;;;18.40;73.60;;;;;;5073409;28;20075;-38
2022/09/25 13:00:47;;;;;;;2.53;0.30;;;18.30;77.30;;;;;;5072908;28;21349;-37
2022/09/25 13:03:31;;;;;;;3.30;0.40;;;18.40;77.10;;;;;;5081701;28;20119;-39
2022/09/25 13:06:20;;;;;;;2.33;0.32;;;18.70;74.60;;;;;;5082414;28;20083;-38
2022/09/25 13:09:24;;;;;;;2.30;0.30;;;18.80;73.80;;;;;;5075952;28;20043;-37
2022/09/25 13:12:09;;;;;;;2.55;0.30;;;18.70;72.20;;;;;;5062289;28;20053;-37
2022/09/25 13:14:43;;;;;;;1.60;0.20;;;18.40;77.50;;;;;;5072806;28;20537;-38
2022/09/25 13:17:11;;;;;;;1.42;0.40;;;18.20;81.20;;;;;;5082069;28;20378;-38
2022/09/25 13:19:37;;;;;;;1.58;0.25;;;18.30;81.00;;;;;;5075683;28;20457;-38
2022/09/25 13:22:11;;;;;;;1.58;0.30;;;18.00;80.90;;;;;;5081641;28;20044;-39
2022/09/25 13:24:45;;;;;;;0.80;0.13;;;17.70;82.90;;;;;;5071882;28;20048;-39
2022/09/25 13:27:17;;;;;;;2.50;0.22;;;17.50;85.20;;;;;;5056838;28;20493;-38
2022/09/25 13:29:59;;;;;;;1.67;0.20;;;17.20;87.40;;;;;;5074632;28;20040;-39
2022/09/25 13:32:33;;;;;;;3.38;0.50;;;16.90;87.30;;;;;;5072708;28;20032;-38
2022/09/25 13:35:05;;;;;;;1.08;0.10;;;16.60;88.70;;;;;;5081815;28;20037;-37
2022/09/25 13:37:35;;;;;;;1.42;0.10;;;16.40;89.20;;;;;;5076342;28;20028;-37